createdAt,value
2023-01-12T00:01:40.150Z,1.57
2023-01-12T00:04:41.950Z,1.70
2023-01-12T00:07:43.640Z,1.03
2023-01-12T00:10:45.646Z,1.60
2023-01-12T00:13:48.082Z,1.90
2023-01-12T00:16:49.776Z,1.40
2023-01-12T00:19:51.427Z,1.87
2023-01-12T00:22:53.134Z,1.57
2023-01-12T00:25:54.866Z,1.43
2023-01-12T00:28:56.543Z,1.20
2023-01-12T00:31:59.404Z,1.37
2023-01-12T00:35:01.391Z,2.30
2023-01-12T00:38:06.254Z,1.20
2023-01-12T00:41:10.341Z,1.90
2023-01-12T00:44:30.583Z,2.03
2023-01-12T00:47:32.419Z,1.43
2023-01-12T00:50:34.233Z,1.43
2023-01-12T00:53:36.143Z,1.73
2023-01-12T00:56:38.760Z,1.63
2023-01-12T00:59:41.006Z,1.97
2023-01-12T01:02:42.789Z,1.40
2023-01-12T01:05:44.509Z,2.10
2023-01-12T01:08:46.194Z,2.40
2023-01-12T01:11:48.000Z,1.40
2023-01-12T01:14:49.765Z,2.30
2023-01-12T01:17:51.423Z,1.93
2023-01-12T01:20:53.336Z,1.93
2023-01-12T01:23:55.061Z,2.07
2023-01-12T01:26:56.729Z,1.60
2023-01-12T01:29:59.430Z,1.20
2023-01-12T01:33:01.111Z,1.60
2023-01-12T01:36:03.056Z,1.60
2023-01-12T01:39:05.287Z,1.37
2023-01-12T01:42:27.622Z,1.60
2023-01-12T01:45:29.298Z,1.73
2023-01-12T01:48:33.762Z,1.70
2023-01-12T01:51:35.847Z,2.00
2023-01-12T01:54:47.545Z,1.57
2023-01-12T01:57:55.829Z,1.80
2023-01-12T02:00:58.388Z,1.60
2023-01-12T02:04:00.820Z,1.97
2023-01-12T02:07:03.075Z,2.07
2023-01-12T02:10:05.244Z,1.87
2023-01-12T02:13:25.538Z,1.70
2023-01-12T02:16:30.237Z,2.50
2023-01-12T02:20:04.023Z,2.10
2023-01-12T02:23:27.658Z,2.07
2023-01-12T02:26:37.113Z,2.33
2023-01-12T02:30:05.573Z,2.40
2023-01-12T02:33:30.031Z,2.40
2023-01-12T02:36:53.556Z,2.43
2023-01-12T02:40:10.401Z,2.23
2023-01-12T02:43:20.224Z,1.80
2023-01-12T02:46:27.804Z,2.43
2023-01-12T02:49:36.169Z,1.70
2023-01-12T02:52:42.435Z,2.13
2023-01-12T02:55:45.773Z,2.50
2023-01-12T02:58:55.364Z,2.83
2023-01-12T03:02:02.682Z,2.97
2023-01-12T03:05:05.989Z,1.93
2023-01-12T03:08:11.948Z,2.67
2023-01-12T03:11:19.157Z,2.33
2023-01-12T03:14:22.322Z,2.40
2023-01-12T03:17:43.162Z,2.40
2023-01-12T03:20:53.195Z,1.97
2023-01-12T03:24:07.722Z,2.30
2023-01-12T03:27:21.820Z,1.97
2023-01-12T03:30:30.311Z,2.17
2023-01-12T03:33:32.083Z,2.70
2023-01-12T03:36:39.901Z,1.67
2023-01-12T03:39:56.807Z,1.90
2023-01-12T03:43:10.518Z,2.40
2023-01-12T03:46:22.823Z,2.27
2023-01-12T03:49:32.115Z,2.20
2023-01-12T03:52:36.263Z,1.97
2023-01-12T03:55:38.439Z,2.23
2023-01-12T03:58:41.250Z,2.73
2023-01-12T04:01:43.359Z,2.40
2023-01-12T04:04:45.336Z,2.40
2023-01-12T04:07:46.997Z,2.17
2023-01-12T04:10:48.732Z,2.47
2023-01-12T04:13:50.620Z,2.20
2023-01-12T04:16:52.604Z,1.70
2023-01-12T04:19:54.290Z,2.27
2023-01-12T04:22:55.943Z,2.00
2023-01-12T04:25:57.608Z,2.17
2023-01-12T04:28:59.429Z,1.93
2023-01-12T04:32:01.225Z,1.97
2023-01-12T04:35:03.156Z,1.80
2023-01-12T04:38:09.057Z,2.43
2023-01-12T04:41:10.776Z,2.73
2023-01-12T04:44:12.542Z,1.63
2023-01-12T04:47:14.211Z,2.03
2023-01-12T04:50:15.937Z,1.90
2023-01-12T04:53:17.774Z,1.80
2023-01-12T04:56:20.258Z,1.67
2023-01-12T04:59:22.115Z,1.40
2023-01-12T05:02:23.879Z,1.67
2023-01-12T05:05:26.604Z,1.70
2023-01-12T05:08:46.983Z,1.40
2023-01-12T05:11:48.641Z,1.80
2023-01-12T05:14:50.829Z,0.90
2023-01-12T05:17:54.265Z,1.20
2023-01-12T05:20:57.058Z,1.20
2023-01-12T05:23:58.774Z,1.50
2023-01-12T05:27:01.222Z,1.23
2023-01-12T05:30:03.420Z,1.17
2023-01-12T05:33:05.155Z,1.20
2023-01-12T05:36:08.999Z,0.80
2023-01-12T05:39:10.673Z,1.20
2023-01-12T05:42:31.269Z,1.20
2023-01-12T05:45:33.872Z,1.10
2023-01-12T05:48:35.530Z,0.87
2023-01-12T05:51:37.198Z,0.90
2023-01-12T05:54:38.842Z,0.80
2023-01-12T05:57:40.509Z,0.83
2023-01-12T06:00:42.238Z,1.07
2023-01-12T06:03:43.903Z,0.93
2023-01-12T06:06:46.405Z,0.80
2023-01-12T06:09:48.047Z,1.07
2023-01-12T06:13:08.880Z,1.20
2023-01-12T06:16:10.591Z,1.43
2023-01-12T06:19:13.174Z,1.03
2023-01-12T06:22:14.965Z,1.50
2023-01-12T06:25:16.669Z,1.23
2023-01-12T06:28:18.336Z,1.20
2023-01-12T06:31:20.135Z,0.70
2023-01-12T06:34:21.874Z,0.60
2023-01-12T06:37:23.599Z,1.23
2023-01-12T06:40:25.285Z,1.03
2023-01-12T06:43:26.942Z,0.60
2023-01-12T06:46:28.850Z,1.37
2023-01-12T06:49:30.584Z,0.77
2023-01-12T06:52:32.294Z,0.87
2023-01-12T06:55:34.051Z,1.03
2023-01-12T06:58:36.632Z,0.60
2023-01-12T07:01:39.354Z,0.90
2023-01-12T07:04:41.829Z,0.60
2023-01-12T07:07:43.660Z,0.87
2023-01-12T07:10:46.450Z,1.17
2023-01-12T07:13:48.174Z,0.60
2023-01-12T07:16:49.966Z,1.23
2023-01-12T07:19:51.669Z,1.17
2023-01-12T07:22:54.954Z,1.40
2023-01-12T07:25:59.787Z,0.77
2023-01-12T07:29:01.473Z,1.20
2023-01-12T07:32:03.272Z,1.30
2023-01-12T07:35:05.368Z,1.73
2023-01-12T07:38:07.258Z,0.90
2023-01-12T07:41:28.913Z,1.23
2023-01-12T07:44:40.348Z,1.23
2023-01-12T07:47:42.091Z,0.93
2023-01-12T07:50:43.830Z,1.00
2023-01-12T07:53:47.858Z,0.90
2023-01-12T07:56:49.625Z,1.33
2023-01-12T07:59:51.264Z,1.30
2023-01-12T08:02:54.887Z,1.37
2023-01-12T08:05:57.797Z,1.63
2023-01-12T08:08:59.480Z,1.37
2023-01-12T08:12:01.160Z,1.10
2023-01-12T08:15:04.388Z,1.73
2023-01-12T08:18:15.273Z,1.83
2023-01-12T08:21:21.206Z,1.70
2023-01-12T08:24:27.485Z,2.03
2023-01-12T08:27:31.827Z,1.33
2023-01-12T08:30:34.061Z,1.77
2023-01-12T08:33:37.431Z,1.83
2023-01-12T08:36:44.063Z,2.40
2023-01-12T08:39:46.653Z,1.27
2023-01-12T08:42:49.898Z,1.70
2023-01-12T08:45:51.525Z,1.50
2023-01-12T08:48:53.863Z,1.63
2023-01-12T08:51:55.689Z,1.20
2023-01-12T08:54:57.520Z,1.33
2023-01-12T08:57:59.185Z,1.30
2023-01-12T09:01:08.692Z,1.40
2023-01-12T09:04:10.856Z,0.93
2023-01-12T09:07:13.104Z,1.40
2023-01-12T09:10:15.252Z,0.73
2023-01-12T09:13:16.929Z,1.50
2023-01-12T09:16:20.040Z,1.17
2023-01-12T09:19:21.806Z,1.30
2023-01-12T09:22:23.928Z,1.10
2023-01-12T09:25:25.800Z,0.80
2023-01-12T09:28:27.475Z,0.60
2023-01-12T09:31:30.954Z,0.73
2023-01-12T09:34:32.767Z,0.80
2023-01-12T09:37:34.463Z,0.73
2023-01-12T09:40:36.205Z,0.90
2023-01-12T09:43:58.110Z,0.97
2023-01-12T09:47:00.362Z,0.70
2023-01-12T09:50:11.466Z,0.70
2023-01-12T09:53:22.422Z,0.80
2023-01-12T09:56:41.749Z,0.53
2023-01-12T09:59:59.230Z,0.50
2023-01-12T10:03:09.507Z,0.43
2023-01-12T10:06:15.731Z,0.57
2023-01-12T10:09:22.579Z,0.60
2023-01-12T10:12:41.945Z,0.77
2023-01-12T10:15:51.853Z,1.10
2023-01-12T10:18:58.936Z,0.50
2023-01-12T10:22:11.648Z,0.73
2023-01-12T10:25:19.459Z,0.50
2023-01-12T10:28:33.252Z,0.77
2023-01-12T10:31:35.024Z,0.43
2023-01-12T10:34:50.731Z,0.50
2023-01-12T10:37:56.575Z,0.80
2023-01-12T10:41:10.214Z,0.47
2023-01-12T10:44:15.871Z,0.70
2023-01-12T10:47:18.453Z,0.50
2023-01-12T10:50:28.646Z,0.40
2023-01-12T10:53:40.599Z,0.60
2023-01-12T10:57:12.733Z,0.70
2023-01-12T11:00:26.612Z,0.47
2023-01-12T11:03:34.498Z,0.50
2023-01-12T11:06:37.020Z,0.50
2023-01-12T11:09:40.328Z,0.60
2023-01-12T11:12:41.997Z,1.07
2023-01-12T11:16:04.233Z,0.60
2023-01-12T11:19:23.393Z,0.60
2023-01-12T11:22:28.435Z,0.33
2023-01-12T11:25:41.553Z,0.50
2023-01-12T11:28:47.062Z,0.83
2023-01-12T11:31:54.720Z,1.07
2023-01-12T11:35:21.508Z,1.13
2023-01-12T11:38:33.769Z,1.00
2023-01-12T11:41:39.147Z,0.40
2023-01-12T11:45:02.645Z,1.07
2023-01-12T11:48:20.472Z,0.70
2023-01-12T11:51:22.181Z,1.13
2023-01-12T11:54:26.698Z,0.90
2023-01-12T11:57:41.756Z,0.60
2023-01-12T12:01:03.205Z,0.73
2023-01-12T12:04:49.853Z,0.80
2023-01-12T12:08:02.310Z,0.77
2023-01-12T12:11:34.476Z,0.80
2023-01-12T12:15:04.040Z,0.60
2023-01-12T12:18:37.879Z,0.80
2023-01-12T12:21:50.721Z,0.73
2023-01-12T12:25:07.566Z,0.97
2023-01-12T12:28:48.139Z,0.53
2023-01-12T12:32:00.368Z,0.70
2023-01-12T12:35:33.830Z,0.47
2023-01-12T12:38:53.813Z,0.70
2023-01-12T12:42:29.182Z,0.70
2023-01-12T12:45:50.640Z,0.70
2023-01-12T12:49:05.558Z,0.57
2023-01-12T12:52:11.978Z,1.10
2023-01-12T12:55:13.928Z,0.97
2023-01-12T12:58:21.639Z,1.10
2023-01-12T13:01:23.398Z,0.90
2023-01-12T13:04:54.808Z,0.63
2023-01-12T13:07:56.504Z,0.63
2023-01-12T13:10:58.849Z,1.10
2023-01-12T13:14:15.403Z,0.93
2023-01-12T13:17:20.142Z,0.77
2023-01-12T13:20:49.748Z,0.63
2023-01-12T13:23:52.118Z,0.60
2023-01-12T13:26:55.532Z,0.93
2023-01-12T13:30:38.505Z,0.70
2023-01-12T13:33:40.274Z,1.03
2023-01-12T13:36:43.301Z,0.97
2023-01-12T13:39:57.968Z,1.00
2023-01-12T13:43:15.192Z,1.37
2023-01-12T13:46:27.206Z,0.70
2023-01-12T13:49:30.659Z,1.33
2023-01-12T13:52:37.065Z,0.63
2023-01-12T13:55:38.877Z,1.03
2023-01-12T13:58:43.477Z,0.70
2023-01-12T14:01:47.426Z,1.60
2023-01-12T14:05:23.221Z,0.70
2023-01-12T14:08:39.646Z,0.60
2023-01-12T14:12:20.130Z,0.87
2023-01-12T14:15:58.683Z,0.60
2023-01-12T14:19:00.524Z,0.70
2023-01-12T14:22:04.453Z,1.00
2023-01-12T14:25:23.265Z,0.77
2023-01-12T14:28:25.452Z,0.90
2023-01-12T14:31:37.080Z,1.17
2023-01-12T14:34:41.540Z,0.97
2023-01-12T14:37:48.974Z,1.00
2023-01-12T14:41:02.346Z,0.87
2023-01-12T14:44:23.736Z,0.90
2023-01-12T14:47:29.718Z,1.10
2023-01-12T14:50:31.466Z,1.37
2023-01-12T14:53:38.085Z,1.27
2023-01-12T14:56:59.635Z,1.20
2023-01-12T15:00:02.863Z,1.50
2023-01-12T15:03:20.230Z,1.67
2023-01-12T15:06:23.041Z,3.40
2023-01-12T15:09:36.912Z,2.20
2023-01-12T15:12:38.950Z,2.53
2023-01-12T15:15:59.218Z,1.23
2023-01-12T15:19:19.687Z,1.53
2023-01-12T15:22:45.208Z,2.53
2023-01-12T15:25:46.924Z,1.77
2023-01-12T15:28:49.482Z,1.97
2023-01-12T15:31:51.308Z,2.00
2023-01-12T15:34:53.542Z,2.50
2023-01-12T15:37:57.071Z,1.80
2023-01-12T15:40:58.764Z,1.80
2023-01-12T15:44:00.444Z,1.80
2023-01-12T15:47:02.738Z,1.50
2023-01-12T15:50:05.523Z,1.87
2023-01-12T15:53:17.902Z,1.90
2023-01-12T15:56:19.540Z,1.70
2023-01-12T15:59:21.221Z,2.00
2023-01-12T16:02:36.469Z,1.97
2023-01-12T16:05:38.301Z,1.67
2023-01-12T16:08:39.951Z,1.53
2023-01-12T16:11:42.295Z,2.37
2023-01-12T16:14:44.841Z,1.90
2023-01-12T16:17:47.486Z,2.77
2023-01-12T16:20:49.133Z,2.40
2023-01-12T16:23:50.987Z,1.83
2023-01-12T16:26:53.311Z,1.77
2023-01-12T16:29:55.255Z,1.90
2023-01-12T16:32:58.630Z,1.90
2023-01-12T16:36:01.873Z,2.13
2023-01-12T16:39:03.651Z,1.87
2023-01-12T16:42:05.405Z,1.77
2023-01-12T16:45:07.427Z,2.10
2023-01-12T16:48:09.102Z,1.40
2023-01-12T16:51:16.292Z,1.93
2023-01-12T16:54:19.283Z,2.03
2023-01-12T16:57:20.982Z,1.47
2023-01-12T17:00:22.904Z,1.87
2023-01-12T17:03:24.921Z,1.90
2023-01-12T17:06:28.566Z,1.80
2023-01-12T17:09:30.425Z,1.70
2023-01-12T17:12:32.219Z,1.90
2023-01-12T17:15:34.816Z,1.83
2023-01-12T17:18:38.404Z,1.67
2023-01-12T17:21:41.580Z,1.80
2023-01-12T17:24:43.286Z,1.90
2023-01-12T17:27:45.209Z,1.97
2023-01-12T17:30:47.706Z,2.47
2023-01-12T17:33:51.716Z,1.90
2023-01-12T17:36:53.387Z,2.13
2023-01-12T17:39:55.059Z,2.40
2023-01-12T17:43:02.803Z,2.87
2023-01-12T17:46:07.446Z,2.70
2023-01-12T17:49:10.342Z,2.87
2023-01-12T17:52:12.054Z,2.47
2023-01-12T17:55:13.722Z,2.90
2023-01-12T17:58:18.324Z,3.70
2023-01-12T18:01:21.418Z,3.30
2023-01-12T18:04:23.379Z,1.90
2023-01-12T18:07:25.064Z,2.77
2023-01-12T18:10:26.747Z,2.97
2023-01-12T18:13:28.700Z,2.73
2023-01-12T18:16:30.401Z,2.60
2023-01-12T18:19:33.261Z,3.17
2023-01-12T18:22:34.938Z,2.67
2023-01-12T18:25:37.013Z,2.97
2023-01-12T18:28:38.815Z,2.60
2023-01-12T18:31:42.435Z,2.70
2023-01-12T18:34:46.783Z,2.60
2023-01-12T18:37:48.592Z,2.67
2023-01-12T18:41:10.204Z,3.17
2023-01-12T18:44:11.918Z,2.80
2023-01-12T18:47:33.162Z,2.90
2023-01-12T18:50:53.480Z,3.37
2023-01-12T18:53:55.211Z,2.93
2023-01-12T18:56:56.875Z,2.27
2023-01-12T19:00:16.974Z,1.67
2023-01-12T19:03:18.657Z,2.37
2023-01-12T19:06:56.963Z,3.40
2023-01-12T19:10:00.221Z,3.00
2023-01-12T19:13:20.630Z,2.63
2023-01-12T19:16:41.011Z,3.13
2023-01-12T19:19:42.703Z,2.87
2023-01-12T19:23:02.973Z,2.97
2023-01-12T19:26:23.382Z,2.70
2023-01-12T19:29:25.063Z,2.67
2023-01-12T19:32:26.809Z,3.77
2023-01-12T19:35:28.512Z,3.53
2023-01-12T19:38:30.169Z,4.40
2023-01-12T19:41:50.702Z,4.10
2023-01-12T19:44:52.360Z,2.93
2023-01-12T19:47:54.048Z,2.97
2023-01-12T19:50:55.747Z,2.63
2023-01-12T19:53:57.500Z,2.40
2023-01-12T19:56:59.183Z,2.90
2023-01-12T20:00:01.062Z,3.13
2023-01-12T20:03:02.901Z,2.40
2023-01-12T20:06:06.825Z,2.47
2023-01-12T20:09:08.511Z,2.23
2023-01-12T20:12:10.184Z,1.60
2023-01-12T20:15:11.956Z,1.70
2023-01-12T20:18:13.788Z,1.70
2023-01-12T20:21:15.534Z,1.20
2023-01-12T20:24:17.213Z,1.30
2023-01-12T20:27:18.918Z,1.63
2023-01-12T20:30:37.055Z,1.60
2023-01-12T20:33:40.421Z,1.07
2023-01-12T20:36:44.634Z,1.07
2023-01-12T20:39:49.620Z,0.90
2023-01-12T20:42:51.306Z,0.67
2023-01-12T20:45:52.958Z,1.07
2023-01-12T20:48:54.692Z,1.30
2023-01-12T20:51:58.846Z,3.30
2023-01-12T20:55:00.706Z,2.73
2023-01-12T20:58:02.383Z,2.30
2023-01-12T21:01:12.266Z,3.10
2023-01-12T21:04:14.053Z,3.27
2023-01-12T21:07:16.559Z,2.97
2023-01-12T21:10:18.334Z,3.07
2023-01-12T21:13:21.175Z,2.63
2023-01-12T21:16:22.886Z,2.90
2023-01-12T21:19:24.742Z,2.27
2023-01-12T21:22:26.509Z,2.70
2023-01-12T21:25:28.997Z,2.30
2023-01-12T21:28:30.841Z,2.10
2023-01-12T21:31:33.015Z,2.57
2023-01-12T21:34:34.684Z,2.40
2023-01-12T21:37:36.330Z,2.87
2023-01-12T21:40:38.013Z,2.80
2023-01-12T21:43:39.665Z,2.50
2023-01-12T21:46:41.355Z,3.00
2023-01-12T21:49:43.019Z,2.40
2023-01-12T21:52:44.923Z,2.53
2023-01-12T21:55:57.993Z,2.60
2023-01-12T21:58:59.671Z,2.77
2023-01-12T22:02:01.735Z,2.60
2023-01-12T22:05:03.888Z,1.87
2023-01-12T22:08:05.534Z,1.90
2023-01-12T22:11:10.056Z,2.07
2023-01-12T22:14:11.735Z,2.00
2023-01-12T22:17:13.404Z,2.03
2023-01-12T22:20:16.484Z,2.13
2023-01-12T22:23:18.161Z,1.67
2023-01-12T22:26:20.026Z,2.20
2023-01-12T22:29:21.790Z,1.70
2023-01-12T22:32:23.476Z,1.80
2023-01-12T22:35:26.115Z,2.00
2023-01-12T22:38:27.783Z,1.57
2023-01-12T22:41:29.444Z,2.03
2023-01-12T22:44:31.116Z,2.10
2023-01-12T22:47:47.291Z,2.20
2023-01-12T22:50:53.202Z,1.90
2023-01-12T22:53:55.824Z,2.40
2023-01-12T22:56:57.571Z,2.00
2023-01-12T22:59:59.278Z,1.87
2023-01-12T23:03:01.924Z,2.13
2023-01-12T23:06:05.981Z,2.83
2023-01-12T23:09:08.015Z,2.37
2023-01-12T23:12:09.862Z,2.30
2023-01-12T23:15:11.829Z,1.93
2023-01-12T23:18:16.609Z,1.70
2023-01-12T23:21:20.368Z,1.60
2023-01-12T23:24:22.266Z,1.53
2023-01-12T23:27:24.114Z,1.50
2023-01-12T23:30:30.838Z,1.20
2023-01-12T23:33:32.984Z,2.83
2023-01-12T23:36:35.999Z,2.10
2023-01-12T23:39:37.850Z,1.40
2023-01-12T23:42:39.864Z,1.03
2023-01-12T23:45:41.751Z,0.90
2023-01-12T23:48:43.865Z,0.60
2023-01-12T23:51:45.724Z,0.67
2023-01-12T23:54:47.747Z,0.70
2023-01-12T23:57:49.557Z,0.50
